Time;durP1;ratioP1;P1;durP2;ratioP2;P2;SDS_P1;SDS_P2;PMS_P1;PMS_P2;Temp;Humidity;BMP_temperature;BMP_pressure;BME280_temperature;BME280_humidity;BME280_pressure;Samples;Min_cycle;Max_cycle;Signal;HPM_P1;HPM_P2
2024/03/17 00:01:00;;;;;;;11.43;2.42;;;7.10;99.90;;;;;;5058496;28;20463;-66
2024/03/17 00:03:26;;;;;;;13.00;2.00;;;7.10;99.90;;;;;;5071133;28;20032;-66
2024/03/17 00:05:59;;;;;;;21.13;2.40;;;7.10;99.90;;;;;;5079134;28;20036;-66
2024/03/17 00:08:25;;;;;;;7.78;2.35;;;7.10;99.90;;;;;;5079395;28;20028;-66
2024/03/17 00:10:51;;;;;;;16.25;2.83;;;7.10;99.90;;;;;;5066269;28;20089;-66
2024/03/17 00:13:18;;;;;;;18.25;2.97;;;7.00;99.90;;;;;;5078823;28;20028;-66
2024/03/17 00:15:43;;;;;;;15.38;2.75;;;7.00;99.90;;;;;;5063677;28;20115;-66
2024/03/17 00:18:10;;;;;;;16.10;3.08;;;7.00;99.90;;;;;;5085481;28;20040;-66
2024/03/17 00:20:36;;;;;;;16.77;3.30;;;6.90;99.90;;;;;;5079060;28;20047;-67
2024/03/17 00:23:03;;;;;;;18.77;3.35;;;6.90;99.90;;;;;;5082430;28;20028;-66
2024/03/17 00:25:28;;;;;;;24.17;2.53;;;6.90;99.90;;;;;;5061835;28;20036;-66
2024/03/17 00:27:57;;;;;;;16.85;2.65;;;6.80;99.90;;;;;;5074277;28;20024;-67
2024/03/17 00:30:23;;;;;;;13.75;3.30;;;6.80;99.90;;;;;;5086429;28;20028;-66
2024/03/17 00:32:48;;;;;;;29.58;7.43;;;6.80;99.90;;;;;;5083943;28;20040;-66
2024/03/17 00:35:20;;;;;;;30.05;10.30;;;6.70;99.90;;;;;;5071250;28;20029;-66
2024/03/17 00:37:49;;;;;;;25.23;8.10;;;6.60;99.90;;;;;;5081937;28;20032;-66
2024/03/17 00:40:19;;;;;;;34.28;7.82;;;6.60;99.90;;;;;;5083828;28;20028;-66
2024/03/17 00:42:45;;;;;;;24.67;5.65;;;6.60;99.90;;;;;;5074919;28;20143;-67
2024/03/17 00:45:12;;;;;;;26.90;6.43;;;6.60;99.90;;;;;;5082904;28;20040;-66
2024/03/17 00:47:38;;;;;;;20.75;5.55;;;6.50;99.90;;;;;;5084386;28;20119;-66
2024/03/17 00:50:06;;;;;;;20.33;4.40;;;6.50;99.90;;;;;;5081961;28;20098;-66
2024/03/17 00:52:32;;;;;;;;;;;6.50;99.90;;;;;;5078645;28;20728;-67
2024/03/17 00:54:57;;;;;;;15.07;2.85;;;6.50;99.90;;;;;;5069208;28;19915;-66
2024/03/17 00:57:23;;;;;;;15.70;2.88;;;6.40;99.90;;;;;;5079176;28;20042;-66
2024/03/17 00:59:50;;;;;;;20.27;2.47;;;6.40;99.90;;;;;;5083435;28;20081;-66
2024/03/17 01:02:18;;;;;;;10.15;3.00;;;6.30;99.90;;;;;;5067966;28;20508;-68
2024/03/17 01:04:45;;;;;;;15.07;2.45;;;6.30;99.90;;;;;;5079906;28;20401;-66
2024/03/17 01:07:11;;;;;;;15.13;2.50;;;6.30;99.90;;;;;;5074873;28;20611;-67
2024/03/17 01:09:37;;;;;;;14.23;2.42;;;6.30;99.90;;;;;;5075633;28;20041;-67
2024/03/17 01:12:02;;;;;;;16.00;2.60;;;6.20;99.90;;;;;;5082627;28;20032;-66
2024/03/17 01:14:29;;;;;;;14.57;3.22;;;6.20;99.90;;;;;;5067783;28;20028;-67
2024/03/17 01:16:56;;;;;;;21.38;2.65;;;6.20;99.90;;;;;;5081205;28;20036;-67
2024/03/17 01:19:22;;;;;;;11.48;2.45;;;6.10;99.90;;;;;;5081006;28;20032;-67
2024/03/17 01:21:47;;;;;;;12.50;2.35;;;6.10;99.90;;;;;;5061520;28;20081;-66
2024/03/17 01:24:13;;;;;;;13.30;2.92;;;6.10;99.90;;;;;;5074855;28;20036;-67
2024/03/17 01:26:39;;;;;;;19.60;2.83;;;6.00;99.90;;;;;;5082362;28;20040;-66
2024/03/17 01:29:04;;;;;;;13.18;2.60;;;6.00;99.90;;;;;;5076572;28;20103;-66
2024/03/17 01:31:30;;;;;;;15.20;3.10;;;5.90;99.90;;;;;;5077472;28;20400;-67
2024/03/17 01:33:56;;;;;;;17.75;3.38;;;5.90;99.90;;;;;;5084976;28;20043;-67
2024/03/17 01:36:21;;;;;;;12.30;2.58;;;5.80;99.90;;;;;;5074309;28;20036;-67
2024/03/17 01:38:47;;;;;;;23.42;3.53;;;5.80;99.90;;;;;;5062886;28;20032;-67
2024/03/17 01:41:14;;;;;;;10.88;2.35;;;5.80;99.90;;;;;;5078968;28;20315;-66
2024/03/17 01:43:40;;;;;;;16.70;3.38;;;5.80;99.90;;;;;;5074840;28;20035;-66
2024/03/17 01:46:07;;;;;;;22.30;4.05;;;5.70;99.90;;;;;;5081119;28;20012;-67
2024/03/17 01:48:33;;;;;;;13.45;2.60;;;5.70;99.90;;;;;;5080404;28;20037;-67
2024/03/17 01:50:59;;;;;;;14.63;2.58;;;5.60;99.90;;;;;;5076984;28;20032;-67
2024/03/17 01:53:25;;;;;;;17.15;2.30;;;5.60;99.90;;;;;;5070834;28;20039;-67
2024/03/17 01:55:52;;;;;;;11.40;2.13;;;5.60;99.90;;;;;;5073129;28;20093;-67
2024/03/17 01:58:20;;;;;;;15.68;2.55;;;5.50;99.90;;;;;;5077640;28;20035;-67
2024/03/17 02:00:45;;;;;;;17.20;2.78;;;5.40;99.90;;;;;;5071344;28;20036;-67
2024/03/17 02:03:12;;;;;;;23.02;2.88;;;5.40;99.90;;;;;;5077647;28;20028;-67
2024/03/17 02:05:39;;;;;;;15.57;2.75;;;5.30;99.90;;;;;;5081502;28;20040;-67
2024/03/17 02:08:06;;;;;;;15.50;2.58;;;5.30;99.90;;;;;;5061418;28;20032;-67
2024/03/17 02:10:33;;;;;;;15.88;2.58;;;5.30;99.90;;;;;;5071339;28;20024;-68
2024/03/17 02:12:59;;;;;;;9.90;1.90;;;5.30;99.90;;;;;;5072018;28;20073;-66
2024/03/17 02:15:25;;;;;;;14.13;3.33;;;5.30;99.90;;;;;;5072170;28;20510;-67
2024/03/17 02:17:50;;;;;;;9.00;2.15;;;5.20;99.90;;;;;;5079662;28;20078;-66
2024/03/17 02:20:17;;;;;;;15.48;2.90;;;5.20;99.90;;;;;;5074149;28;20115;-68
2024/03/17 02:22:43;;;;;;;16.63;3.07;;;5.20;99.90;;;;;;5074123;28;20023;-66
2024/03/17 02:25:09;;;;;;;12.23;2.28;;;5.10;99.90;;;;;;5071459;28;20021;-67
2024/03/17 02:27:38;;;;;;;15.57;2.28;;;5.10;99.90;;;;;;5081306;28;20032;-67
2024/03/17 02:30:10;;;;;;;15.75;2.17;;;5.10;99.90;;;;;;5075670;28;20024;-67
2024/03/17 02:32:36;;;;;;;11.30;2.28;;;5.00;99.90;;;;;;5076891;28;20029;-66
2024/03/17 02:35:02;;;;;;;21.02;2.70;;;5.00;99.90;;;;;;5077054;28;20039;-66
2024/03/17 02:37:27;;;;;;;11.85;2.58;;;5.00;99.90;;;;;;5070508;28;20017;-67
2024/03/17 02:39:53;;;;;;;17.60;3.08;;;4.90;99.90;;;;;;5068883;28;20024;-67
2024/03/17 02:42:19;;;;;;;24.73;2.88;;;4.90;99.90;;;;;;5073954;28;20115;-67
2024/03/17 02:44:45;;;;;;;20.63;2.30;;;4.80;99.90;;;;;;5071606;28;20055;-66
2024/03/17 02:47:14;;;;;;;9.80;2.17;;;4.80;99.90;;;;;;5077427;28;20089;-67
2024/03/17 02:49:43;;;;;;;6.30;2.28;;;4.80;99.90;;;;;;5073008;28;20028;-67
2024/03/17 02:52:09;;;;;;;8.50;2.38;;;4.70;99.90;;;;;;5071568;28;20095;-67
2024/03/17 02:54:38;;;;;;;10.45;3.10;;;4.70;99.90;;;;;;5077797;28;20048;-68
2024/03/17 02:57:06;;;;;;;16.50;2.50;;;4.70;99.90;;;;;;5065607;28;20119;-67
2024/03/17 02:59:32;;;;;;;13.68;2.55;;;4.70;99.90;;;;;;5073465;28;21208;-67
2024/03/17 03:01:59;;;;;;;17.05;2.72;;;4.60;99.90;;;;;;5075040;28;20093;-66
2024/03/17 03:04:25;;;;;;;19.38;2.83;;;4.50;99.90;;;;;;5075021;28;20024;-66
2024/03/17 03:06:50;;;;;;;19.73;3.80;;;4.60;99.90;;;;;;5071407;28;20685;-67
2024/03/17 03:09:22;;;;;;;15.00;2.65;;;4.50;99.90;;;;;;5059623;28;20171;-66
2024/03/17 03:11:48;;;;;;;13.02;2.78;;;4.60;99.90;;;;;;5072250;28;20090;-66
2024/03/17 03:14:13;;;;;;;15.55;3.10;;;4.50;99.90;;;;;;5068955;28;23232;-66
2024/03/17 03:16:39;;;;;;;20.00;3.00;;;4.50;99.90;;;;;;5070351;28;20051;-66
2024/03/17 03:19:07;;;;;;;17.08;2.85;;;4.40;99.90;;;;;;5075479;28;20020;-66
2024/03/17 03:21:33;;;;;;;12.18;3.13;;;4.40;99.90;;;;;;5058179;28;20032;-67
2024/03/17 03:23:58;;;;;;;19.15;3.45;;;4.40;99.90;;;;;;5073948;28;20036;-66
2024/03/17 03:26:24;;;;;;;10.60;3.08;;;4.30;99.90;;;;;;5069164;28;20056;-66
2024/03/17 03:28:50;;;;;;;12.48;3.05;;;4.40;99.90;;;;;;5074522;28;20588;-67
2024/03/17 03:31:16;;;;;;;14.00;2.92;;;4.40;99.90;;;;;;5070909;28;20024;-67
2024/03/17 03:33:42;;;;;;;14.80;2.83;;;4.30;99.90;;;;;;5059290;28;20055;-68
2024/03/17 03:36:12;;;;;;;15.52;3.20;;;4.30;99.90;;;;;;5057972;28;20057;-68
2024/03/17 03:38:38;;;;;;;15.00;2.92;;;4.30;99.90;;;;;;5071997;28;20554;-67
2024/03/17 03:41:14;;;;;;;17.23;2.65;;;4.30;99.90;;;;;;5079914;28;20025;-66
2024/03/17 03:43:40;;;;;;;13.60;3.08;;;4.20;99.90;;;;;;5078059;28;20021;-67
2024/03/17 03:46:07;;;;;;;10.73;2.75;;;4.20;99.90;;;;;;5073799;28;20039;-66
2024/03/17 03:48:34;;;;;;;17.55;3.65;;;4.20;99.90;;;;;;5058076;28;20428;-66
2024/03/17 03:51:06;;;;;;;12.55;2.08;;;4.10;99.90;;;;;;5079397;28;20034;-67
2024/03/17 03:53:36;;;;;;;7.97;2.60;;;4.00;99.90;;;;;;5076948;28;20508;-67
2024/03/17 03:56:10;;;;;;;16.05;2.58;;;3.90;99.90;;;;;;5077905;28;20082;-67
2024/03/17 03:58:37;;;;;;;10.52;2.63;;;4.00;99.90;;;;;;5080152;28;20032;-67
2024/03/17 04:01:11;;;;;;;10.55;3.28;;;4.00;99.90;;;;;;5061201;28;20032;-67
2024/03/17 04:03:37;;;;;;;23.10;3.78;;;3.90;99.90;;;;;;5076755;28;20054;-67
2024/03/17 04:06:04;;;;;;;19.92;3.53;;;3.90;99.90;;;;;;5082241;28;20521;-66
2024/03/17 04:08:30;;;;;;;17.50;2.83;;;3.90;99.90;;;;;;5065375;28;20057;-67
2024/03/17 04:10:56;;;;;;;11.15;3.40;;;3.80;99.90;;;;;;5078782;28;20625;-67
2024/03/17 04:13:22;;;;;;;13.55;3.42;;;3.80;99.90;;;;;;5079452;28;20521;-67
2024/03/17 04:15:48;;;;;;;20.70;2.88;;;3.80;99.90;;;;;;5076287;28;20032;-67
2024/03/17 04:18:15;;;;;;;11.00;3.22;;;3.80;99.90;;;;;;5072545;28;20038;-67
2024/03/17 04:20:41;;;;;;;11.52;2.90;;;3.80;99.90;;;;;;5078049;28;20042;-66
2024/03/17 04:23:07;;;;;;;14.70;3.30;;;3.80;99.90;;;;;;5084037;28;20240;-67
2024/03/17 04:25:33;;;;;;;17.38;4.07;;;3.70;99.90;;;;;;5079027;28;20025;-67
2024/03/17 04:27:58;;;;;;;12.95;3.10;;;3.80;99.90;;;;;;5075198;28;20017;-66
2024/03/17 04:30:24;;;;;;;16.67;4.28;;;3.80;99.90;;;;;;5061911;28;20021;-67
2024/03/17 04:32:50;;;;;;;16.77;3.95;;;3.70;99.90;;;;;;5063532;28;20055;-67
2024/03/17 04:35:16;;;;;;;10.98;3.35;;;3.70;99.90;;;;;;5055478;28;20037;-66
2024/03/17 04:37:42;;;;;;;18.83;3.85;;;3.70;99.90;;;;;;5057307;28;20462;-67
2024/03/17 04:40:09;;;;;;;12.88;3.00;;;3.80;99.90;;;;;;5047289;28;20024;-67
2024/03/17 04:42:35;;;;;;;16.20;3.33;;;3.70;99.90;;;;;;5042199;28;20123;-66
2024/03/17 04:45:01;;;;;;;15.07;3.15;;;3.70;99.90;;;;;;5071193;28;20119;-66
2024/03/17 04:47:26;;;;;;;15.75;2.92;;;3.70;99.90;;;;;;5059103;28;20048;-66
2024/03/17 04:49:52;;;;;;;9.63;2.65;;;3.60;99.90;;;;;;5079141;28;20032;-66
2024/03/17 04:52:18;;;;;;;11.90;3.20;;;3.60;99.90;;;;;;5079770;28;20024;-67
2024/03/17 04:54:43;;;;;;;11.20;3.47;;;3.60;99.90;;;;;;5080392;28;20563;-67
2024/03/17 04:57:10;;;;;;;11.77;3.35;;;3.60;99.90;;;;;;5084080;28;20077;-66
2024/03/17 04:59:36;;;;;;;12.82;3.58;;;3.50;99.90;;;;;;5055910;28;20036;-67
2024/03/17 05:02:02;;;;;;;11.93;3.53;;;3.50;99.90;;;;;;5061233;28;20086;-67
2024/03/17 05:04:28;;;;;;;13.38;3.67;;;3.50;99.90;;;;;;5077133;28;20085;-67
2024/03/17 05:06:54;;;;;;;11.63;3.67;;;3.50;99.90;;;;;;5083783;28;20298;-66
2024/03/17 05:09:20;;;;;;;15.63;3.83;;;3.50;99.90;;;;;;5080230;28;21000;-66
2024/03/17 05:11:47;;;;;;;13.88;3.58;;;3.50;99.90;;;;;;5080485;28;20101;-66
2024/03/17 05:14:13;;;;;;;14.35;3.78;;;3.50;99.90;;;;;;5078880;28;20082;-66
2024/03/17 05:16:38;;;;;;;16.45;3.95;;;3.50;99.90;;;;;;5060562;28;20036;-67
2024/03/17 05:19:04;;;;;;;20.90;4.25;;;3.50;99.90;;;;;;5057352;28;20512;-66
2024/03/17 05:21:30;;;;;;;18.77;3.92;;;3.50;99.90;;;;;;5077001;28;20047;-66
2024/03/17 05:23:57;;;;;;;12.85;3.72;;;3.40;99.90;;;;;;5080122;28;20044;-66
2024/03/17 05:26:24;;;;;;;8.40;3.65;;;3.40;99.90;;;;;;5080174;28;20055;-66
2024/03/17 05:28:50;;;;;;;16.85;4.25;;;3.40;99.90;;;;;;5083841;28;20035;-66
2024/03/17 05:31:17;;;;;;;11.98;3.53;;;3.40;99.90;;;;;;5073480;28;20021;-67
2024/03/17 05:33:46;;;;;;;10.02;3.45;;;3.40;99.90;;;;;;5058456;28;20558;-66
2024/03/17 05:36:12;;;;;;;17.35;4.57;;;3.50;99.90;;;;;;5077844;28;20024;-66
2024/03/17 05:38:37;;;;;;;16.45;3.97;;;3.50;99.90;;;;;;5078732;28;20436;-66
2024/03/17 05:41:05;;;;;;;21.77;4.43;;;3.40;99.90;;;;;;5074823;28;20424;-66
2024/03/17 05:43:33;;;;;;;14.60;3.88;;;3.40;99.90;;;;;;5071255;28;20549;-68
2024/03/17 05:46:01;;;;;;;21.83;5.18;;;3.40;99.90;;;;;;5080697;28;20020;-67
2024/03/17 05:48:27;;;;;;;16.33;4.40;;;3.40;99.90;;;;;;5059769;28;20101;-67
2024/03/17 05:50:53;;;;;;;13.35;4.07;;;3.40;99.90;;;;;;5084456;28;20066;-65
2024/03/17 05:53:19;;;;;;;10.98;4.18;;;3.40;99.90;;;;;;5072374;28;20048;-65
2024/03/17 05:55:45;;;;;;;9.90;3.67;;;3.40;99.90;;;;;;5072912;28;20040;-64
2024/03/17 05:58:11;;;;;;;9.02;3.95;;;3.40;99.90;;;;;;5076835;28;20323;-65
2024/03/17 06:00:38;;;;;;;14.75;4.45;;;3.40;99.90;;;;;;5077064;28;20120;-66
2024/03/17 06:03:05;;;;;;;14.38;4.13;;;3.30;99.90;;;;;;5079032;28;20408;-65
2024/03/17 06:05:38;;;;;;;19.25;4.22;;;3.30;99.90;;;;;;5075091;28;20040;-65
2024/03/17 06:08:05;;;;;;;17.25;5.40;;;3.30;99.90;;;;;;5045814;28;20090;-65
2024/03/17 06:10:32;;;;;;;18.13;4.67;;;3.30;99.90;;;;;;5074939;28;20024;-65
2024/03/17 06:12:58;;;;;;;13.10;4.03;;;3.40;99.90;;;;;;5054571;28;20272;-65
2024/03/17 06:15:24;;;;;;;13.20;4.38;;;3.40;99.90;;;;;;5082206;28;20035;-65
2024/03/17 06:17:53;;;;;;;13.48;4.15;;;3.40;99.90;;;;;;5072942;28;20047;-65
2024/03/17 06:20:19;;;;;;;12.73;3.85;;;3.30;99.90;;;;;;5070771;28;20033;-65
2024/03/17 06:22:45;;;;;;;14.43;4.30;;;3.40;99.90;;;;;;5082800;28;20992;-66
2024/03/17 06:25:11;;;;;;;8.30;3.78;;;3.40;99.90;;;;;;5083241;28;20036;-66
2024/03/17 06:27:37;;;;;;;10.90;3.60;;;3.50;99.90;;;;;;5083744;28;20083;-66
2024/03/17 06:30:03;;;;;;;11.70;3.67;;;3.50;99.90;;;;;;5073592;28;20489;-65
2024/03/17 06:32:33;;;;;;;18.02;4.18;;;3.50;99.90;;;;;;5079745;28;20036;-65
2024/03/17 06:35:01;;;;;;;13.50;4.25;;;3.50;99.90;;;;;;5077326;28;20111;-65
2024/03/17 06:37:27;;;;;;;13.93;4.07;;;3.60;99.90;;;;;;5056934;28;20028;-65
2024/03/17 06:39:53;;;;;;;13.65;4.18;;;3.60;99.90;;;;;;5078076;28;20047;-65
2024/03/17 06:42:19;;;;;;;14.35;4.78;;;3.60;99.90;;;;;;5071222;28;20122;-65
2024/03/17 06:44:45;;;;;;;13.45;4.55;;;3.70;99.90;;;;;;5076179;28;20116;-65
2024/03/17 06:47:10;;;;;;;16.58;4.28;;;3.70;99.90;;;;;;5055967;28;20650;-65
2024/03/17 06:49:36;;;;;;;14.68;4.65;;;3.80;99.90;;;;;;5062175;28;20028;-66
2024/03/17 06:52:01;;;;;;;13.95;4.57;;;3.80;99.90;;;;;;5064456;28;20026;-65
2024/03/17 06:54:27;;;;;;;22.02;5.75;;;3.90;99.90;;;;;;5073568;28;20036;-67
2024/03/17 06:56:53;;;;;;;11.18;4.65;;;4.00;99.90;;;;;;5078744;28;20040;-71
2024/03/17 06:59:18;;;;;;;16.90;5.47;;;4.10;99.90;;;;;;5079996;28;20036;-72
2024/03/17 07:01:44;;;;;;;16.15;5.15;;;4.10;99.90;;;;;;5074860;28;20047;-69
2024/03/17 07:04:10;;;;;;;16.58;5.15;;;4.20;99.90;;;;;;5064995;28;20033;-75
2024/03/17 07:06:36;;;;;;;16.20;5.35;;;4.30;99.90;;;;;;5078301;28;20123;-70
2024/03/17 07:09:02;;;;;;;14.63;5.45;;;4.40;99.90;;;;;;5070384;28;20569;-72
2024/03/17 07:11:28;;;;;;;15.00;5.43;;;4.40;99.90;;;;;;5060797;28;20530;-66
2024/03/17 07:13:53;;;;;;;23.52;6.45;;;4.50;99.90;;;;;;5063365;28;20036;-67
2024/03/17 07:16:21;;;;;;;12.40;5.45;;;4.60;99.90;;;;;;5071174;28;20402;-66
2024/03/17 07:18:47;;;;;;;23.90;6.45;;;4.70;99.90;;;;;;5073522;28;20035;-67
2024/03/17 07:21:13;;;;;;;15.45;6.18;;;4.80;99.90;;;;;;5074193;28;20035;-67
2024/03/17 07:23:38;;;;;;;16.98;6.03;;;4.90;99.90;;;;;;5072595;28;20056;-66
2024/03/17 07:26:04;;;;;;;16.92;5.85;;;5.00;99.90;;;;;;5073445;28;20024;-66
2024/03/17 07:28:31;;;;;;;23.50;6.22;;;5.10;99.90;;;;;;5076404;28;20086;-67
2024/03/17 07:30:58;;;;;;;15.25;5.28;;;5.30;99.90;;;;;;5071967;28;20056;-67
2024/03/17 07:33:24;;;;;;;15.30;5.45;;;5.40;99.90;;;;;;5058546;28;20501;-67
2024/03/17 07:36:00;;;;;;;17.33;5.40;;;5.50;99.90;;;;;;5079344;28;20047;-67
2024/03/17 07:38:26;;;;;;;15.45;4.55;;;5.60;99.90;;;;;;5054452;28;20050;-67
2024/03/17 07:41:01;;;;;;;16.52;5.18;;;5.70;99.90;;;;;;5081184;28;20093;-67
2024/03/17 07:43:27;;;;;;;12.93;4.30;;;5.80;99.90;;;;;;5065641;28;20114;-67
2024/03/17 07:46:07;;;;;;;18.92;5.63;;;5.90;99.90;;;;;;5075277;28;20040;-67
2024/03/17 07:48:36;;;;;;;15.45;4.38;;;6.00;99.90;;;;;;5053876;28;20036;-67
2024/03/17 07:51:04;;;;;;;15.00;4.65;;;6.10;99.90;;;;;;5073859;28;20078;-67
2024/03/17 07:53:33;;;;;;;17.75;4.80;;;6.30;99.90;;;;;;5074323;28;20040;-67
2024/03/17 07:56:04;;;;;;;21.05;4.30;;;6.40;99.90;;;;;;5054902;28;20624;-67
2024/03/17 07:58:34;;;;;;;17.98;4.32;;;6.50;99.90;;;;;;5078639;28;20441;-67
2024/03/17 08:01:03;;;;;;;15.75;3.53;;;6.60;99.90;;;;;;5074013;28;20028;-68
2024/03/17 08:03:31;;;;;;;16.70;4.20;;;6.80;99.90;;;;;;5080845;28;20032;-68
2024/03/17 08:05:57;;;;;;;17.17;3.75;;;6.80;99.90;;;;;;5079091;28;20029;-67
2024/03/17 08:08:23;;;;;;;20.33;3.55;;;6.90;99.90;;;;;;5062575;28;20020;-68
2024/03/17 08:10:49;;;;;;;16.10;4.03;;;7.10;99.90;;;;;;5078913;28;20040;-67
2024/03/17 08:13:16;;;;;;;17.00;4.15;;;7.20;99.90;;;;;;5072175;28;20035;-68
2024/03/17 08:15:45;;;;;;;12.75;2.60;;;7.20;99.90;;;;;;5073908;28;20047;-68
2024/03/17 08:18:14;;;;;;;20.45;3.40;;;7.30;99.90;;;;;;5075616;28;20369;-68
2024/03/17 08:20:42;;;;;;;11.40;2.88;;;7.50;99.90;;;;;;5077750;28;20076;-68
2024/03/17 08:23:07;;;;;;;19.85;2.88;;;7.50;99.90;;;;;;5072479;28;20493;-67
2024/03/17 08:25:34;;;;;;;21.60;2.90;;;7.60;99.90;;;;;;5076498;28;20035;-68
2024/03/17 08:28:00;;;;;;;22.15;3.00;;;7.70;99.90;;;;;;5073874;28;20492;-67
2024/03/17 08:30:26;;;;;;;10.13;2.80;;;7.80;99.90;;;;;;5072431;28;20044;-68
2024/03/17 08:32:51;;;;;;;15.60;3.25;;;7.90;99.90;;;;;;5069460;28;20037;-68
2024/03/17 08:35:17;;;;;;;17.48;3.05;;;8.00;99.90;;;;;;5059301;28;20052;-68
2024/03/17 08:37:43;;;;;;;16.42;2.58;;;8.00;99.90;;;;;;5079352;28;20073;-68
2024/03/17 08:40:10;;;;;;;12.73;3.28;;;8.10;99.90;;;;;;5082597;28;20453;-68
2024/03/17 08:42:36;;;;;;;10.43;2.75;;;8.10;99.90;;;;;;5076508;28;20068;-68
2024/03/17 08:45:02;;;;;;;21.75;3.28;;;8.20;99.90;;;;;;5076388;28;20071;-68
2024/03/17 08:47:28;;;;;;;12.30;3.20;;;8.20;99.90;;;;;;5074078;28;20665;-68
2024/03/17 08:49:54;;;;;;;16.85;3.78;;;8.30;99.90;;;;;;5064179;28;20039;-68
2024/03/17 08:52:20;;;;;;;17.08;4.22;;;8.40;99.90;;;;;;5077718;28;20021;-68
2024/03/17 08:54:51;;;;;;;14.88;3.58;;;8.50;99.90;;;;;;5080775;28;20050;-68
2024/03/17 08:57:17;;;;;;;34.00;4.50;;;8.60;99.90;;;;;;5080271;28;20118;-68
2024/03/17 08:59:46;;;;;;;17.23;4.57;;;8.70;99.90;;;;;;5076342;28;20029;-67
2024/03/17 09:02:16;;;;;;;25.27;4.32;;;8.90;99.90;;;;;;5081175;28;20036;-68
2024/03/17 09:04:42;;;;;;;12.50;3.85;;;9.00;99.90;;;;;;5079144;28;20035;-68
2024/03/17 09:07:08;;;;;;;20.52;3.33;;;9.10;99.90;;;;;;5077361;28;20024;-67
2024/03/17 09:09:33;;;;;;;14.02;3.25;;;9.30;99.90;;;;;;5077094;28;20047;-67
2024/03/17 09:11:59;;;;;;;17.98;4.47;;;9.30;99.90;;;;;;5073171;28;20044;-67
2024/03/17 09:14:25;;;;;;;18.02;3.63;;;9.40;99.90;;;;;;5080289;28;20396;-67
2024/03/17 09:16:50;;;;;;;12.48;3.40;;;9.50;99.90;;;;;;5078348;28;20058;-68
2024/03/17 09:19:16;;;;;;;15.93;3.78;;;9.60;99.90;;;;;;5078411;28;20070;-68
2024/03/17 09:21:42;;;;;;;12.65;3.05;;;9.70;99.90;;;;;;5063856;28;20036;-67
2024/03/17 09:24:08;;;;;;;10.52;3.03;;;9.80;99.90;;;;;;5056476;28;20035;-67
2024/03/17 09:26:34;;;;;;;16.42;3.13;;;9.90;99.90;;;;;;5076275;28;20032;-68
2024/03/17 09:29:00;;;;;;;12.82;3.50;;;10.00;99.90;;;;;;5071877;28;20047;-69
2024/03/17 09:31:26;;;;;;;12.27;2.70;;;10.00;99.90;;;;;;5073950;28;20399;-67
2024/03/17 09:33:51;;;;;;;12.65;3.00;;;10.00;99.90;;;;;;5078789;28;20040;-68
2024/03/17 09:36:18;;;;;;;16.70;3.60;;;10.20;99.90;;;;;;5077883;28;20027;-68
2024/03/17 09:38:45;;;;;;;18.30;3.35;;;10.30;99.90;;;;;;5076748;28;20036;-68
2024/03/17 09:41:22;;;;;;;15.68;3.40;;;10.40;99.90;;;;;;5075145;28;20033;-69
2024/03/17 09:43:49;;;;;;;18.47;3.70;;;10.40;99.90;;;;;;5076461;28;20714;-69
2024/03/17 09:46:16;;;;;;;14.35;3.30;;;10.50;99.90;;;;;;5072063;28;20120;-69
2024/03/17 09:48:43;;;;;;;21.92;3.83;;;10.50;99.90;;;;;;5076468;28;20036;-69
2024/03/17 09:51:20;;;;;;;16.15;3.30;;;10.50;99.80;;;;;;5081392;28;20646;-68
2024/03/17 09:53:45;;;;;;;18.83;3.35;;;10.60;99.60;;;;;;5058468;28;20079;-69
2024/03/17 09:56:15;;;;;;;19.27;3.50;;;10.60;99.50;;;;;;5076866;28;20386;-69
2024/03/17 09:58:41;;;;;;;13.88;3.78;;;10.60;99.50;;;;;;5062694;28;20035;-69
2024/03/17 10:01:06;;;;;;;12.60;3.50;;;10.70;99.50;;;;;;5075139;28;20085;-71
2024/03/17 10:03:58;;;;;;;11.07;3.95;;;10.70;99.40;;;;;;5079875;28;20177;-69
2024/03/17 10:06:27;;;;;;;13.95;3.92;;;10.80;99.30;;;;;;5073253;28;20029;-68
2024/03/17 10:08:57;;;;;;;17.85;3.85;;;10.80;99.10;;;;;;5070470;28;20508;-68
2024/03/17 10:11:31;;;;;;;11.10;3.78;;;10.90;98.90;;;;;;5077966;28;20032;-68
2024/03/17 10:14:07;;;;;;;14.50;3.80;;;10.90;98.80;;;;;;5071358;28;20119;-69
2024/03/17 10:16:35;;;;;;;17.63;4.03;;;10.90;98.70;;;;;;5073466;28;20024;-69
2024/03/17 10:19:10;;;;;;;15.07;4.07;;;11.00;98.60;;;;;;5080585;28;20050;-69
2024/03/17 10:21:36;;;;;;;13.65;3.97;;;11.00;98.10;;;;;;5079045;28;20524;-68
2024/03/17 10:24:09;;;;;;;14.77;4.32;;;11.10;98.50;;;;;;5062277;28;20036;-70
2024/03/17 10:26:53;;;;;;;12.88;3.75;;;11.10;98.40;;;;;;5078667;28;20024;-68
2024/03/17 10:29:30;;;;;;;15.93;4.30;;;11.30;98.70;;;;;;5072766;28;20030;-69
2024/03/17 10:32:01;;;;;;;14.88;4.30;;;11.50;98.40;;;;;;5076248;28;20075;-69
2024/03/17 10:34:37;;;;;;;11.73;4.55;;;11.90;98.70;;;;;;5077705;28;20042;-67
2024/03/17 10:37:10;;;;;;;19.27;4.88;;;12.30;98.80;;;;;;5061980;28;20040;-69
2024/03/17 10:39:37;;;;;;;17.65;4.45;;;13.00;98.40;;;;;;5078643;28;20036;-69
2024/03/17 10:42:04;;;;;;;14.60;4.30;;;13.40;97.10;;;;;;5057268;28;20386;-67
2024/03/17 10:44:36;;;;;;;11.65;4.50;;;13.20;95.90;;;;;;5059954;28;20032;-66
2024/03/17 10:47:04;;;;;;;18.98;4.90;;;13.10;96.00;;;;;;5071100;28;20063;-67
2024/03/17 10:49:34;;;;;;;15.18;4.55;;;13.20;96.20;;;;;;5073424;28;20033;-67
2024/03/17 10:51:59;;;;;;;16.00;3.85;;;13.80;96.20;;;;;;5072956;28;20785;-67
2024/03/17 10:54:28;;;;;;;17.30;4.28;;;13.70;95.10;;;;;;5074486;28;20139;-66
2024/03/17 10:56:55;;;;;;;14.82;4.15;;;13.50;94.50;;;;;;5071508;28;20079;-66
2024/03/17 10:59:52;;;;;;;14.82;4.35;;;13.30;94.70;;;;;;5072223;28;20479;-67
2024/03/17 11:02:24;;;;;;;18.08;4.22;;;13.50;95.60;;;;;;5056703;28;20165;-68
2024/03/17 11:04:56;;;;;;;9.40;4.13;;;13.90;94.90;;;;;;5077787;28;20038;-67
2024/03/17 11:07:22;;;;;;;14.25;4.18;;;14.20;94.80;;;;;;5072606;28;20024;-68
2024/03/17 11:09:50;;;;;;;9.75;3.97;;;14.60;94.80;;;;;;5064147;28;20477;-67
2024/03/17 11:12:44;;;;;;;11.85;4.05;;;14.90;94.00;;;;;;5061394;28;20125;-71
2024/03/17 11:15:45;;;;;;;15.85;4.63;;;14.80;93.50;;;;;;5078715;28;20392;-67
2024/03/17 11:18:10;;;;;;;17.33;4.35;;;14.50;93.20;;;;;;5071236;28;20036;-68
2024/03/17 11:20:40;;;;;;;14.55;4.40;;;14.40;93.30;;;;;;5060091;28;20037;-72
2024/03/17 11:23:07;;;;;;;13.55;4.43;;;14.50;93.40;;;;;;5073871;28;20086;-67
2024/03/17 11:25:35;;;;;;;16.55;5.10;;;14.60;94.30;;;;;;5077806;28;20074;-68
2024/03/17 11:28:11;;;;;;;16.23;4.20;;;15.10;94.50;;;;;;5076775;28;20682;-67
2024/03/17 11:33:30;;;;;;;10.55;4.30;;;15.90;93.30;;;;;;5075682;28;20025;-69
2024/03/17 11:36:25;;;;;;;12.43;4.25;;;16.60;92.20;;;;;;5075145;28;20024;-68
2024/03/17 11:39:23;;;;;;;10.38;4.22;;;16.90;92.30;;;;;;5066800;28;20097;-68
2024/03/17 11:41:49;;;;;;;13.43;4.47;;;16.60;90.60;;;;;;5080444;28;20020;-67
2024/03/17 11:44:30;;;;;;;12.75;4.50;;;16.20;90.60;;;;;;5075313;28;20024;-68
2024/03/17 11:47:03;;;;;;;13.77;4.85;;;15.90;91.00;;;;;;5076171;28;20041;-68
2024/03/17 11:49:37;;;;;;;13.48;4.75;;;15.90;90.30;;;;;;5074177;28;21632;-67
2024/03/17 11:52:09;;;;;;;14.13;4.30;;;15.70;90.50;;;;;;5067138;28;20032;-68
2024/03/17 11:54:36;;;;;;;14.60;4.70;;;16.00;91.10;;;;;;5060553;28;20079;-68
2024/03/17 11:57:03;;;;;;;11.18;4.80;;;16.50;91.80;;;;;;5073524;28;20064;-67
2024/03/17 11:59:29;;;;;;;12.77;4.18;;;16.70;90.70;;;;;;5074992;28;20049;-67
2024/03/17 12:01:55;;;;;;;10.23;4.80;;;17.10;88.70;;;;;;5078297;28;20029;-67
2024/03/17 12:04:23;;;;;;;13.95;5.10;;;17.10;88.00;;;;;;5076019;28;20025;-67
2024/03/17 12:06:50;;;;;;;12.65;4.28;;;16.60;88.40;;;;;;5056339;28;20420;-66
2024/03/17 12:09:22;;;;;;;14.52;5.00;;;16.80;88.30;;;;;;5075800;28;20447;-66
2024/03/17 12:11:49;;;;;;;14.40;4.53;;;16.70;88.60;;;;;;5084624;28;20073;-66
2024/03/17 12:14:19;;;;;;;15.45;4.22;;;16.20;88.00;;;;;;5077828;28;20450;-67
2024/03/17 12:16:49;;;;;;;11.07;5.13;;;16.00;89.40;;;;;;5076144;28;20028;-66
2024/03/17 12:19:18;;;;;;;11.27;4.55;;;15.90;89.60;;;;;;5072844;28;20200;-67
2024/03/17 12:21:55;;;;;;;12.85;4.90;;;15.60;89.90;;;;;;5064644;28;20036;-66
2024/03/17 12:24:28;;;;;;;14.90;4.63;;;15.50;89.80;;;;;;5077656;28;20408;-67
2024/03/17 12:26:56;;;;;;;13.02;4.80;;;15.20;90.50;;;;;;5081968;28;20526;-66
2024/03/17 12:29:41;;;;;;;11.75;4.90;;;15.10;90.20;;;;;;5075313;28;20036;-66
2024/03/17 12:32:23;;;;;;;8.93;3.97;;;15.50;91.00;;;;;;5065105;28;20509;-67
2024/03/17 12:34:51;;;;;;;11.45;4.47;;;15.80;91.00;;;;;;5059779;28;20066;-66
2024/03/17 12:37:18;;;;;;;;;;;15.80;90.20;;;;;;5062064;28;20460;-66
2024/03/17 12:39:44;;;;;;;14.38;4.40;;;16.20;90.50;;;;;;5075752;28;19991;-67
2024/03/17 12:42:22;;;;;;;13.68;4.75;;;16.30;90.10;;;;;;5077437;28;20158;-67
2024/03/17 12:44:49;;;;;;;11.30;4.90;;;16.60;90.40;;;;;;5086833;28;20216;-66
2024/03/17 12:47:20;;;;;;;17.02;5.30;;;17.10;89.60;;;;;;5078179;28;20032;-66
2024/03/17 12:49:52;;;;;;;14.38;5.25;;;17.40;90.10;;;;;;5083172;28;20115;-66
2024/03/17 12:52:30;;;;;;;13.70;4.78;;;17.70;87.70;;;;;;5078995;28;20027;-67